sensor_id;sensor_type;location;lat;lon;timestamp;P1;durP1;ratioP1;P2;durP2;ratioP2
60873;SDS011;46715;40.642;-7.920;2023-06-10T00:00:06;11.87;;;3.80;;
60873;SDS011;46715;40.642;-7.920;2023-06-10T00:02:13;14.60;;;4.45;;
60873;SDS011;46715;40.642;-7.920;2023-06-10T00:04:14;13.20;;;4.40;;
60873;SDS011;46715;40.642;-7.920;2023-06-10T00:06:17;12.27;;;4.72;;
60873;SDS011;46715;40.642;-7.920;2023-06-10T00:08:17;14.40;;;4.57;;
60873;SDS011;46715;40.642;-7.920;2023-06-10T00:10:20;14.63;;;4.70;;
60873;SDS011;46715;40.642;-7.920;2023-06-10T00:12:20;11.60;;;4.33;;
60873;SDS011;46715;40.642;-7.920;2023-06-10T00:14:21;14.40;;;4.33;;
60873;SDS011;46715;40.642;-7.920;2023-06-10T00:16:23;12.00;;;3.78;;
60873;SDS011;46715;40.642;-7.920;2023-06-10T00:18:24;11.70;;;4.27;;
60873;SDS011;46715;40.642;-7.920;2023-06-10T00:20:27;13.20;;;3.83;;
60873;SDS011;46715;40.642;-7.920;2023-06-10T00:22:27;13.23;;;4.33;;
60873;SDS011;46715;40.642;-7.920;2023-06-10T00:24:29;19.80;;;4.13;;
60873;SDS011;46715;40.642;-7.920;2023-06-10T00:26:30;14.00;;;4.40;;
60873;SDS011;46715;40.642;-7.920;2023-06-10T00:28:32;11.02;;;3.83;;
60873;SDS011;46715;40.642;-7.920;2023-06-10T00:30:33;12.43;;;4.10;;
60873;SDS011;46715;40.642;-7.920;2023-06-10T00:32:34;16.20;;;4.20;;
60873;SDS011;46715;40.642;-7.920;2023-06-10T00:34:36;14.40;;;3.22;;
60873;SDS011;46715;40.642;-7.920;2023-06-10T00:36:36;9.87;;;3.47;;
60873;SDS011;46715;40.642;-7.920;2023-06-10T00:38:37;15.67;;;4.80;;
60873;SDS011;46715;40.642;-7.920;2023-06-10T00:40:39;10.93;;;5.37;;
60873;SDS011;46715;40.642;-7.920;2023-06-10T00:42:41;20.83;;;7.18;;
60873;SDS011;46715;40.642;-7.920;2023-06-10T00:44:41;15.63;;;6.17;;
60873;SDS011;46715;40.642;-7.920;2023-06-10T00:46:44;14.07;;;7.07;;
60873;SDS011;46715;40.642;-7.920;2023-06-10T00:48:45;13.45;;;6.40;;
60873;SDS011;46715;40.642;-7.920;2023-06-10T00:50:46;14.63;;;6.28;;
60873;SDS011;46715;40.642;-7.920;2023-06-10T00:52:47;9.27;;;4.78;;
60873;SDS011;46715;40.642;-7.920;2023-06-10T00:54:52;14.63;;;5.43;;
60873;SDS011;46715;40.642;-7.920;2023-06-10T00:58:53;11.00;;;3.92;;
60873;SDS011;46715;40.642;-7.920;2023-06-10T01:00:55;14.18;;;4.45;;
60873;SDS011;46715;40.642;-7.920;2023-06-10T01:02:55;18.27;;;3.77;;
60873;SDS011;46715;40.642;-7.920;2023-06-10T01:04:57;13.35;;;3.45;;
60873;SDS011;46715;40.642;-7.920;2023-06-10T01:11:56;13.55;;;4.60;;
60873;SDS011;46715;40.642;-7.920;2023-06-10T01:14:02;12.43;;;4.45;;
60873;SDS011;46715;40.642;-7.920;2023-06-10T01:16:05;13.02;;;3.75;;
60873;SDS011;46715;40.642;-7.920;2023-06-10T01:18:07;15.40;;;4.97;;
60873;SDS011;46715;40.642;-7.920;2023-06-10T01:20:10;15.75;;;3.88;;
60873;SDS011;46715;40.642;-7.920;2023-06-10T01:22:12;13.68;;;4.10;;
60873;SDS011;46715;40.642;-7.920;2023-06-10T01:24:16;13.25;;;4.20;;
60873;SDS011;46715;40.642;-7.920;2023-06-10T01:26:18;13.50;;;4.10;;
60873;SDS011;46715;40.642;-7.920;2023-06-10T01:28:27;14.90;;;3.80;;
60873;SDS011;46715;40.642;-7.920;2023-06-10T01:33:21;17.30;;;4.38;;
60873;SDS011;46715;40.642;-7.920;2023-06-10T01:35:29;14.13;;;4.22;;
60873;SDS011;46715;40.642;-7.920;2023-06-10T01:37:31;15.55;;;4.47;;
60873;SDS011;46715;40.642;-7.920;2023-06-10T01:39:33;14.98;;;4.45;;
60873;SDS011;46715;40.642;-7.920;2023-06-10T01:41:34;15.45;;;4.13;;
60873;SDS011;46715;40.642;-7.920;2023-06-10T01:43:37;12.25;;;3.90;;
60873;SDS011;46715;40.642;-7.920;2023-06-10T01:45:38;13.48;;;4.40;;
60873;SDS011;46715;40.642;-7.920;2023-06-10T01:47:39;14.80;;;4.35;;
60873;SDS011;46715;40.642;-7.920;2023-06-10T01:49:40;17.60;;;3.87;;
60873;SDS011;46715;40.642;-7.920;2023-06-10T01:51:41;9.20;;;3.92;;
60873;SDS011;46715;40.642;-7.920;2023-06-10T01:53:42;19.90;;;4.30;;
60873;SDS011;46715;40.642;-7.920;2023-06-10T01:55:43;13.70;;;4.07;;
60873;SDS011;46715;40.642;-7.920;2023-06-10T01:57:43;13.60;;;4.23;;
60873;SDS011;46715;40.642;-7.920;2023-06-10T01:59:44;14.17;;;4.40;;
60873;SDS011;46715;40.642;-7.920;2023-06-10T02:01:46;13.55;;;4.38;;
60873;SDS011;46715;40.642;-7.920;2023-06-10T02:03:47;17.83;;;4.90;;
60873;SDS011;46715;40.642;-7.920;2023-06-10T02:05:47;13.17;;;4.80;;
60873;SDS011;46715;40.642;-7.920;2023-06-10T02:07:50;15.23;;;4.57;;
60873;SDS011;46715;40.642;-7.920;2023-06-10T02:09:51;16.25;;;5.55;;
60873;SDS011;46715;40.642;-7.920;2023-06-10T02:11:51;12.97;;;4.17;;
60873;SDS011;46715;40.642;-7.920;2023-06-10T02:13:52;18.53;;;4.23;;
60873;SDS011;46715;40.642;-7.920;2023-06-10T02:15:53;18.00;;;5.00;;
60873;SDS011;46715;40.642;-7.920;2023-06-10T02:17:54;18.33;;;5.10;;
60873;SDS011;46715;40.642;-7.920;2023-06-10T02:19:56;14.25;;;4.80;;
60873;SDS011;46715;40.642;-7.920;2023-06-10T02:21:57;25.50;;;5.57;;
60873;SDS011;46715;40.642;-7.920;2023-06-10T02:23:57;14.60;;;4.97;;
60873;SDS011;46715;40.642;-7.920;2023-06-10T02:25:58;13.80;;;4.00;;
60873;SDS011;46715;40.642;-7.920;2023-06-10T02:27:59;19.13;;;4.73;;
60873;SDS011;46715;40.642;-7.920;2023-06-10T02:29:59;13.60;;;4.83;;
60873;SDS011;46715;40.642;-7.920;2023-06-10T02:32:01;18.90;;;4.73;;
60873;SDS011;46715;40.642;-7.920;2023-06-10T02:34:02;14.05;;;4.60;;
60873;SDS011;46715;40.642;-7.920;2023-06-10T02:36:06;15.57;;;4.72;;
60873;SDS011;46715;40.642;-7.920;2023-06-10T02:38:07;14.75;;;4.85;;
60873;SDS011;46715;40.642;-7.920;2023-06-10T02:40:09;14.95;;;5.05;;
60873;SDS011;46715;40.642;-7.920;2023-06-10T02:42:14;14.10;;;4.47;;
60873;SDS011;46715;40.642;-7.920;2023-06-10T02:44:14;17.00;;;4.77;;
60873;SDS011;46715;40.642;-7.920;2023-06-10T02:46:15;14.27;;;4.80;;
60873;SDS011;46715;40.642;-7.920;2023-06-10T02:50:18;18.75;;;5.55;;
60873;SDS011;46715;40.642;-7.920;2023-06-10T02:52:39;22.20;;;6.00;;
60873;SDS011;46715;40.642;-7.920;2023-06-10T02:54:40;15.52;;;4.60;;
60873;SDS011;46715;40.642;-7.920;2023-06-10T02:56:43;24.42;;;5.68;;
60873;SDS011;46715;40.642;-7.920;2023-06-10T02:58:50;20.88;;;5.55;;
60873;SDS011;46715;40.642;-7.920;2023-06-10T03:00:53;16.38;;;4.65;;
60873;SDS011;46715;40.642;-7.920;2023-06-10T03:02:54;15.18;;;5.07;;
60873;SDS011;46715;40.642;-7.920;2023-06-10T03:05:00;23.75;;;5.75;;
60873;SDS011;46715;40.642;-7.920;2023-06-10T03:07:01;19.42;;;5.25;;
60873;SDS011;46715;40.642;-7.920;2023-06-10T03:09:07;16.92;;;5.10;;
60873;SDS011;46715;40.642;-7.920;2023-06-10T03:11:08;14.27;;;4.77;;
60873;SDS011;46715;40.642;-7.920;2023-06-10T03:13:10;16.63;;;6.30;;
60873;SDS011;46715;40.642;-7.920;2023-06-10T03:15:11;16.83;;;5.15;;
60873;SDS011;46715;40.642;-7.920;2023-06-10T03:17:14;25.40;;;5.80;;
60873;SDS011;46715;40.642;-7.920;2023-06-10T03:19:17;16.92;;;5.45;;
60873;SDS011;46715;40.642;-7.920;2023-06-10T03:21:22;20.77;;;5.43;;
60873;SDS011;46715;40.642;-7.920;2023-06-10T03:23:23;19.02;;;5.30;;
60873;SDS011;46715;40.642;-7.920;2023-06-10T03:25:24;18.33;;;5.60;;
60873;SDS011;46715;40.642;-7.920;2023-06-10T03:27:33;23.17;;;5.90;;
60873;SDS011;46715;40.642;-7.920;2023-06-10T03:29:37;22.30;;;6.15;;
60873;SDS011;46715;40.642;-7.920;2023-06-10T03:31:41;22.00;;;5.70;;
60873;SDS011;46715;40.642;-7.920;2023-06-10T03:33:42;22.70;;;6.20;;
60873;SDS011;46715;40.642;-7.920;2023-06-10T03:35:44;20.02;;;5.93;;
60873;SDS011;46715;40.642;-7.920;2023-06-10T03:37:46;16.77;;;5.57;;
60873;SDS011;46715;40.642;-7.920;2023-06-10T03:39:47;14.93;;;5.93;;
60873;SDS011;46715;40.642;-7.920;2023-06-10T03:41:47;19.10;;;5.97;;
60873;SDS011;46715;40.642;-7.920;2023-06-10T03:43:49;20.15;;;5.63;;
60873;SDS011;46715;40.642;-7.920;2023-06-10T03:45:50;19.25;;;5.45;;
60873;SDS011;46715;40.642;-7.920;2023-06-10T03:47:51;17.60;;;5.85;;
60873;SDS011;46715;40.642;-7.920;2023-06-10T03:49:56;20.75;;;5.93;;
60873;SDS011;46715;40.642;-7.920;2023-06-10T03:51:57;25.33;;;6.47;;
60873;SDS011;46715;40.642;-7.920;2023-06-10T03:53:58;16.37;;;5.47;;
60873;SDS011;46715;40.642;-7.920;2023-06-10T03:55:58;18.47;;;6.07;;
60873;SDS011;46715;40.642;-7.920;2023-06-10T03:58:00;16.10;;;5.60;;
60873;SDS011;46715;40.642;-7.920;2023-06-10T04:00:01;13.00;;;5.70;;
60873;SDS011;46715;40.642;-7.920;2023-06-10T04:02:15;19.48;;;5.95;;
60873;SDS011;46715;40.642;-7.920;2023-06-10T04:04:17;21.50;;;5.95;;
60873;SDS011;46715;40.642;-7.920;2023-06-10T04:06:19;23.23;;;6.97;;
60873;SDS011;46715;40.642;-7.920;2023-06-10T04:08:22;22.95;;;6.53;;
60873;SDS011;46715;40.642;-7.920;2023-06-10T04:10:23;19.13;;;5.90;;
60873;SDS011;46715;40.642;-7.920;2023-06-10T04:12:24;23.13;;;6.87;;
60873;SDS011;46715;40.642;-7.920;2023-06-10T04:14:25;23.65;;;6.55;;
60873;SDS011;46715;40.642;-7.920;2023-06-10T04:16:26;26.55;;;6.18;;
60873;SDS011;46715;40.642;-7.920;2023-06-10T04:18:28;22.30;;;6.70;;
60873;SDS011;46715;40.642;-7.920;2023-06-10T04:20:31;22.77;;;6.95;;
60873;SDS011;46715;40.642;-7.920;2023-06-10T04:22:32;20.97;;;6.73;;
60873;SDS011;46715;40.642;-7.920;2023-06-10T04:24:33;40.63;;;7.67;;
60873;SDS011;46715;40.642;-7.920;2023-06-10T04:26:37;20.77;;;7.00;;
60873;SDS011;46715;40.642;-7.920;2023-06-10T04:28:39;18.33;;;6.40;;
60873;SDS011;46715;40.642;-7.920;2023-06-10T04:30:39;18.87;;;6.57;;
60873;SDS011;46715;40.642;-7.920;2023-06-10T04:32:42;21.80;;;6.80;;
60873;SDS011;46715;40.642;-7.920;2023-06-10T04:34:48;19.08;;;7.38;;
60873;SDS011;46715;40.642;-7.920;2023-06-10T04:36:50;21.23;;;7.43;;
60873;SDS011;46715;40.642;-7.920;2023-06-10T04:38:51;22.65;;;8.45;;
60873;SDS011;46715;40.642;-7.920;2023-06-10T04:40:53;21.95;;;6.78;;
60873;SDS011;46715;40.642;-7.920;2023-06-10T04:42:55;18.33;;;6.90;;
60873;SDS011;46715;40.642;-7.920;2023-06-10T04:44:56;19.00;;;7.07;;
60873;SDS011;46715;40.642;-7.920;2023-06-10T04:46:58;20.75;;;7.15;;
60873;SDS011;46715;40.642;-7.920;2023-06-10T04:48:59;25.33;;;7.83;;
60873;SDS011;46715;40.642;-7.920;2023-06-10T04:50:59;18.47;;;7.00;;
60873;SDS011;46715;40.642;-7.920;2023-06-10T04:53:00;23.10;;;7.50;;
60873;SDS011;46715;40.642;-7.920;2023-06-10T04:55:01;14.77;;;6.43;;
60873;SDS011;46715;40.642;-7.920;2023-06-10T04:57:02;24.65;;;6.93;;
60873;SDS011;46715;40.642;-7.920;2023-06-10T04:59:03;17.50;;;6.63;;
60873;SDS011;46715;40.642;-7.920;2023-06-10T05:01:03;18.13;;;5.77;;
60873;SDS011;46715;40.642;-7.920;2023-06-10T05:03:04;14.97;;;6.50;;
60873;SDS011;46715;40.642;-7.920;2023-06-10T05:05:06;13.73;;;5.80;;
60873;SDS011;46715;40.642;-7.920;2023-06-10T05:07:07;20.85;;;5.90;;
60873;SDS011;46715;40.642;-7.920;2023-06-10T05:09:08;18.50;;;5.87;;
60873;SDS011;46715;40.642;-7.920;2023-06-10T05:11:09;18.92;;;6.25;;
60873;SDS011;46715;40.642;-7.920;2023-06-10T05:13:10;23.03;;;7.03;;
60873;SDS011;46715;40.642;-7.920;2023-06-10T05:15:11;21.80;;;5.87;;
60873;SDS011;46715;40.642;-7.920;2023-06-10T05:17:11;21.40;;;6.73;;
60873;SDS011;46715;40.642;-7.920;2023-06-10T05:19:13;20.10;;;6.30;;
60873;SDS011;46715;40.642;-7.920;2023-06-10T05:21:13;20.30;;;6.83;;
60873;SDS011;46715;40.642;-7.920;2023-06-10T05:23:15;23.33;;;7.30;;
60873;SDS011;46715;40.642;-7.920;2023-06-10T05:25:16;20.67;;;6.43;;
60873;SDS011;46715;40.642;-7.920;2023-06-10T05:27:17;21.27;;;6.87;;
60873;SDS011;46715;40.642;-7.920;2023-06-10T05:29:20;17.48;;;6.90;;
60873;SDS011;46715;40.642;-7.920;2023-06-10T05:31:21;30.67;;;8.00;;
60873;SDS011;46715;40.642;-7.920;2023-06-10T05:33:22;20.77;;;7.00;;
60873;SDS011;46715;40.642;-7.920;2023-06-10T05:35:22;19.00;;;6.80;;
60873;SDS011;46715;40.642;-7.920;2023-06-10T05:37:23;20.67;;;7.40;;
60873;SDS011;46715;40.642;-7.920;2023-06-10T05:39:24;21.40;;;8.13;;
60873;SDS011;46715;40.642;-7.920;2023-06-10T05:41:24;20.20;;;6.90;;
60873;SDS011;46715;40.642;-7.920;2023-06-10T05:43:25;19.83;;;7.67;;
60873;SDS011;46715;40.642;-7.920;2023-06-10T05:45:27;24.67;;;7.17;;
60873;SDS011;46715;40.642;-7.920;2023-06-10T05:47:27;22.15;;;7.25;;
60873;SDS011;46715;40.642;-7.920;2023-06-10T05:49:28;25.67;;;6.53;;
60873;SDS011;46715;40.642;-7.920;2023-06-10T05:51:29;28.33;;;7.40;;
60873;SDS011;46715;40.642;-7.920;2023-06-10T05:55:32;19.95;;;7.43;;
60873;SDS011;46715;40.642;-7.920;2023-06-10T05:57:33;17.95;;;7.32;;
60873;SDS011;46715;40.642;-7.920;2023-06-10T05:59:34;15.27;;;6.85;;
60873;SDS011;46715;40.642;-7.920;2023-06-10T06:01:35;19.73;;;8.67;;
60873;SDS011;46715;40.642;-7.920;2023-06-10T06:03:35;23.87;;;7.03;;
60873;SDS011;46715;40.642;-7.920;2023-06-10T06:05:36;16.33;;;7.00;;
60873;SDS011;46715;40.642;-7.920;2023-06-10T06:07:38;24.38;;;7.28;;
60873;SDS011;46715;40.642;-7.920;2023-06-10T06:09:39;16.40;;;6.40;;
60873;SDS011;46715;40.642;-7.920;2023-06-10T06:11:40;17.33;;;7.00;;
60873;SDS011;46715;40.642;-7.920;2023-06-10T06:13:41;18.27;;;7.25;;
60873;SDS011;46715;40.642;-7.920;2023-06-10T06:15:42;27.77;;;7.38;;
60873;SDS011;46715;40.642;-7.920;2023-06-10T06:17:43;23.10;;;6.45;;
60873;SDS011;46715;40.642;-7.920;2023-06-10T06:19:43;18.30;;;6.50;;
60873;SDS011;46715;40.642;-7.920;2023-06-10T06:23:45;14.40;;;5.32;;
60873;SDS011;46715;40.642;-7.920;2023-06-10T06:25:46;13.53;;;6.10;;
60873;SDS011;46715;40.642;-7.920;2023-06-10T06:27:47;21.40;;;5.97;;
60873;SDS011;46715;40.642;-7.920;2023-06-10T06:29:48;17.17;;;6.73;;
60873;SDS011;46715;40.642;-7.920;2023-06-10T06:31:48;21.60;;;6.87;;
60873;SDS011;46715;40.642;-7.920;2023-06-10T06:33:49;18.67;;;5.83;;
60873;SDS011;46715;40.642;-7.920;2023-06-10T06:35:49;24.57;;;5.57;;
60873;SDS011;46715;40.642;-7.920;2023-06-10T06:37:51;16.92;;;6.15;;
60873;SDS011;46715;40.642;-7.920;2023-06-10T06:39:59;19.52;;;5.53;;
60873;SDS011;46715;40.642;-7.920;2023-06-10T06:41:59;16.43;;;5.67;;
60873;SDS011;46715;40.642;-7.920;2023-06-10T06:44:16;27.15;;;5.82;;
60873;SDS011;46715;40.642;-7.920;2023-06-10T06:48:19;16.98;;;5.30;;
60873;SDS011;46715;40.642;-7.920;2023-06-10T06:50:19;22.10;;;6.07;;
60873;SDS011;46715;40.642;-7.920;2023-06-10T06:52:20;17.73;;;5.87;;
60873;SDS011;46715;40.642;-7.920;2023-06-10T06:54:22;16.70;;;6.05;;
60873;SDS011;46715;40.642;-7.920;2023-06-10T06:56:23;25.97;;;6.10;;
60873;SDS011;46715;40.642;-7.920;2023-06-10T06:58:23;16.77;;;5.70;;
60873;SDS011;46715;40.642;-7.920;2023-06-10T07:00:24;21.00;;;5.97;;
60873;SDS011;46715;40.642;-7.920;2023-06-10T07:02:25;15.40;;;5.03;;
60873;SDS011;46715;40.642;-7.920;2023-06-10T07:04:26;16.70;;;5.70;;
60873;SDS011;46715;40.642;-7.920;2023-06-10T07:06:27;13.32;;;4.80;;
60873;SDS011;46715;40.642;-7.920;2023-06-10T07:08:28;19.10;;;5.40;;
60873;SDS011;46715;40.642;-7.920;2023-06-10T07:10:29;16.85;;;5.18;;
60873;SDS011;46715;40.642;-7.920;2023-06-10T07:12:29;16.97;;;5.80;;
60873;SDS011;46715;40.642;-7.920;2023-06-10T07:14:32;17.35;;;5.55;;
60873;SDS011;46715;40.642;-7.920;2023-06-10T07:16:32;14.80;;;5.50;;
60873;SDS011;46715;40.642;-7.920;2023-06-10T07:18:34;14.32;;;5.22;;
60873;SDS011;46715;40.642;-7.920;2023-06-10T07:20:34;13.80;;;5.73;;
60873;SDS011;46715;40.642;-7.920;2023-06-10T07:22:35;15.23;;;5.40;;
60873;SDS011;46715;40.642;-7.920;2023-06-10T07:24:36;16.77;;;5.57;;
60873;SDS011;46715;40.642;-7.920;2023-06-10T07:26:37;14.97;;;6.23;;
60873;SDS011;46715;40.642;-7.920;2023-06-10T07:28:37;18.87;;;6.37;;
60873;SDS011;46715;40.642;-7.920;2023-06-10T07:30:38;11.07;;;5.27;;
60873;SDS011;46715;40.642;-7.920;2023-06-10T07:32:39;14.90;;;5.40;;
60873;SDS011;46715;40.642;-7.920;2023-06-10T07:34:40;10.25;;;4.80;;
60873;SDS011;46715;40.642;-7.920;2023-06-10T07:38:42;11.73;;;4.90;;
60873;SDS011;46715;40.642;-7.920;2023-06-10T07:40:43;13.40;;;4.83;;
60873;SDS011;46715;40.642;-7.920;2023-06-10T07:42:43;11.95;;;5.03;;
60873;SDS011;46715;40.642;-7.920;2023-06-10T07:44:44;9.67;;;5.37;;
60873;SDS011;46715;40.642;-7.920;2023-06-10T07:46:45;12.32;;;4.38;;
60873;SDS011;46715;40.642;-7.920;2023-06-10T07:48:47;10.23;;;4.50;;
60873;SDS011;46715;40.642;-7.920;2023-06-10T07:50:48;17.73;;;5.00;;
60873;SDS011;46715;40.642;-7.920;2023-06-10T07:52:48;10.80;;;3.83;;
60873;SDS011;46715;40.642;-7.920;2023-06-10T07:54:49;11.00;;;4.23;;
60873;SDS011;46715;40.642;-7.920;2023-06-10T07:56:50;12.13;;;4.00;;
60873;SDS011;46715;40.642;-7.920;2023-06-10T07:58:53;10.60;;;4.28;;
60873;SDS011;46715;40.642;-7.920;2023-06-10T08:00:53;9.37;;;3.70;;
60873;SDS011;46715;40.642;-7.920;2023-06-10T08:02:54;10.13;;;4.05;;
60873;SDS011;46715;40.642;-7.920;2023-06-10T08:04:55;9.38;;;3.35;;
60873;SDS011;46715;40.642;-7.920;2023-06-10T08:06:56;8.17;;;3.20;;
60873;SDS011;46715;40.642;-7.920;2023-06-10T08:08:57;9.98;;;2.80;;
60873;SDS011;46715;40.642;-7.920;2023-06-10T08:10:58;10.68;;;2.60;;
60873;SDS011;46715;40.642;-7.920;2023-06-10T08:12:58;9.13;;;2.47;;
60873;SDS011;46715;40.642;-7.920;2023-06-10T08:15:00;6.03;;;2.30;;
60873;SDS011;46715;40.642;-7.920;2023-06-10T08:19:03;6.40;;;2.30;;
60873;SDS011;46715;40.642;-7.920;2023-06-10T08:21:04;7.38;;;2.22;;
60873;SDS011;46715;40.642;-7.920;2023-06-10T08:23:05;7.43;;;2.30;;
60873;SDS011;46715;40.642;-7.920;2023-06-10T08:25:06;6.55;;;2.10;;
60873;SDS011;46715;40.642;-7.920;2023-06-10T08:27:06;8.85;;;2.00;;
60873;SDS011;46715;40.642;-7.920;2023-06-10T08:29:07;9.57;;;1.83;;
60873;SDS011;46715;40.642;-7.920;2023-06-10T08:31:08;6.57;;;1.90;;
60873;SDS011;46715;40.642;-7.920;2023-06-10T08:33:08;8.13;;;2.15;;
60873;SDS011;46715;40.642;-7.920;2023-06-10T08:35:09;5.18;;;1.80;;
60873;SDS011;46715;40.642;-7.920;2023-06-10T08:37:10;10.50;;;2.05;;
60873;SDS011;46715;40.642;-7.920;2023-06-10T08:39:11;4.57;;;2.08;;
60873;SDS011;46715;40.642;-7.920;2023-06-10T08:41:12;4.13;;;2.03;;
60873;SDS011;46715;40.642;-7.920;2023-06-10T08:43:20;7.28;;;2.30;;
60873;SDS011;46715;40.642;-7.920;2023-06-10T08:45:29;5.30;;;2.50;;
60873;SDS011;46715;40.642;-7.920;2023-06-10T08:47:35;3.97;;;1.90;;
60873;SDS011;46715;40.642;-7.920;2023-06-10T08:49:44;6.05;;;2.20;;
60873;SDS011;46715;40.642;-7.920;2023-06-10T08:51:47;4.90;;;1.80;;
60873;SDS011;46715;40.642;-7.920;2023-06-10T08:53:53;4.18;;;1.58;;
60873;SDS011;46715;40.642;-7.920;2023-06-10T08:56:04;6.50;;;1.60;;
60873;SDS011;46715;40.642;-7.920;2023-06-10T08:58:06;3.47;;;1.42;;
60873;SDS011;46715;40.642;-7.920;2023-06-10T09:00:08;3.08;;;1.58;;
60873;SDS011;46715;40.642;-7.920;2023-06-10T09:02:09;3.38;;;1.42;;
60873;SDS011;46715;40.642;-7.920;2023-06-10T09:04:10;3.95;;;1.40;;
60873;SDS011;46715;40.642;-7.920;2023-06-10T09:06:12;4.20;;;1.40;;
60873;SDS011;46715;40.642;-7.920;2023-06-10T09:08:13;2.80;;;1.45;;
60873;SDS011;46715;40.642;-7.920;2023-06-10T09:10:20;3.20;;;1.35;;
60873;SDS011;46715;40.642;-7.920;2023-06-10T09:12:21;4.32;;;1.70;;
60873;SDS011;46715;40.642;-7.920;2023-06-10T09:14:25;6.25;;;1.90;;
60873;SDS011;46715;40.642;-7.920;2023-06-10T09:16:26;4.35;;;1.70;;
60873;SDS011;46715;40.642;-7.920;2023-06-10T09:18:27;5.80;;;1.55;;
60873;SDS011;46715;40.642;-7.920;2023-06-10T09:20:29;4.03;;;1.58;;
60873;SDS011;46715;40.642;-7.920;2023-06-10T09:22:30;4.72;;;1.48;;
60873;SDS011;46715;40.642;-7.920;2023-06-10T09:24:31;6.47;;;1.52;;
60873;SDS011;46715;40.642;-7.920;2023-06-10T09:26:33;3.83;;;1.15;;
60873;SDS011;46715;40.642;-7.920;2023-06-10T09:28:36;4.18;;;1.10;;
60873;SDS011;46715;40.642;-7.920;2023-06-10T09:30:37;3.55;;;0.93;;
60873;SDS011;46715;40.642;-7.920;2023-06-10T09:32:40;5.55;;;1.60;;
60873;SDS011;46715;40.642;-7.920;2023-06-10T09:34:41;8.35;;;1.25;;
60873;SDS011;46715;40.642;-7.920;2023-06-10T09:36:42;5.78;;;1.58;;
60873;SDS011;46715;40.642;-7.920;2023-06-10T09:40:50;5.70;;;1.48;;
60873;SDS011;46715;40.642;-7.920;2023-06-10T09:43:00;2.67;;;1.25;;
60873;SDS011;46715;40.642;-7.920;2023-06-10T09:45:02;2.90;;;1.20;;
60873;SDS011;46715;40.642;-7.920;2023-06-10T09:47:03;5.82;;;1.35;;
60873;SDS011;46715;40.642;-7.920;2023-06-10T09:51:08;4.60;;;1.30;;
60873;SDS011;46715;40.642;-7.920;2023-06-10T09:53:10;4.25;;;1.23;;
60873;SDS011;46715;40.642;-7.920;2023-06-10T09:55:11;8.38;;;1.50;;
60873;SDS011;46715;40.642;-7.920;2023-06-10T09:57:12;2.83;;;1.13;;
60873;SDS011;46715;40.642;-7.920;2023-06-10T09:59:14;2.63;;;1.30;;
60873;SDS011;46715;40.642;-7.920;2023-06-10T10:01:15;2.90;;;1.20;;
60873;SDS011;46715;40.642;-7.920;2023-06-10T10:05:23;4.43;;;1.05;;
60873;SDS011;46715;40.642;-7.920;2023-06-10T10:07:23;2.97;;;1.20;;
60873;SDS011;46715;40.642;-7.920;2023-06-10T10:09:24;1.60;;;0.90;;
60873;SDS011;46715;40.642;-7.920;2023-06-10T10:11:25;4.13;;;1.30;;
60873;SDS011;46715;40.642;-7.920;2023-06-10T10:13:27;6.63;;;1.05;;
60873;SDS011;46715;40.642;-7.920;2023-06-10T10:15:29;5.93;;;1.20;;
60873;SDS011;46715;40.642;-7.920;2023-06-10T10:17:32;4.00;;;1.42;;
60873;SDS011;46715;40.642;-7.920;2023-06-10T10:19:36;4.65;;;1.13;;
60873;SDS011;46715;40.642;-7.920;2023-06-10T10:21:48;3.75;;;1.10;;
60873;SDS011;46715;40.642;-7.920;2023-06-10T10:23:57;3.17;;;1.45;;
60873;SDS011;46715;40.642;-7.920;2023-06-10T10:26:18;4.90;;;1.33;;
60873;SDS011;46715;40.642;-7.920;2023-06-10T10:28:23;5.00;;;1.35;;
60873;SDS011;46715;40.642;-7.920;2023-06-10T10:30:30;4.03;;;1.38;;
60873;SDS011;46715;40.642;-7.920;2023-06-10T10:32:38;2.60;;;1.35;;
60873;SDS011;46715;40.642;-7.920;2023-06-10T10:35:01;2.78;;;1.45;;
60873;SDS011;46715;40.642;-7.920;2023-06-10T10:37:08;2.80;;;1.30;;
60873;SDS011;46715;40.642;-7.920;2023-06-10T10:39:08;4.82;;;1.65;;
60873;SDS011;46715;40.642;-7.920;2023-06-10T10:41:10;4.25;;;1.35;;
60873;SDS011;46715;40.642;-7.920;2023-06-10T10:43:13;5.20;;;1.20;;
60873;SDS011;46715;40.642;-7.920;2023-06-10T10:45:16;2.92;;;1.48;;
60873;SDS011;46715;40.642;-7.920;2023-06-10T10:47:16;2.22;;;1.52;;
60873;SDS011;46715;40.642;-7.920;2023-06-10T10:49:27;7.30;;;1.75;;
60873;SDS011;46715;40.642;-7.920;2023-06-10T10:51:33;3.30;;;1.52;;
60873;SDS011;46715;40.642;-7.920;2023-06-10T10:53:38;4.65;;;1.65;;
60873;SDS011;46715;40.642;-7.920;2023-06-10T10:55:40;6.57;;;1.80;;
60873;SDS011;46715;40.642;-7.920;2023-06-10T10:57:40;3.47;;;1.63;;
60873;SDS011;46715;40.642;-7.920;2023-06-10T10:59:57;4.13;;;1.83;;
60873;SDS011;46715;40.642;-7.920;2023-06-10T11:02:02;4.82;;;2.00;;
60873;SDS011;46715;40.642;-7.920;2023-06-10T11:04:03;2.60;;;1.38;;
60873;SDS011;46715;40.642;-7.920;2023-06-10T11:06:11;4.65;;;2.10;;
60873;SDS011;46715;40.642;-7.920;2023-06-10T11:08:14;3.45;;;1.75;;
60873;SDS011;46715;40.642;-7.920;2023-06-10T11:10:15;3.22;;;2.05;;
60873;SDS011;46715;40.642;-7.920;2023-06-10T11:12:21;3.65;;;2.00;;
60873;SDS011;46715;40.642;-7.920;2023-06-10T11:14:27;4.53;;;2.00;;
60873;SDS011;46715;40.642;-7.920;2023-06-10T11:16:29;6.65;;;2.42;;
60873;SDS011;46715;40.642;-7.920;2023-06-10T11:20:43;3.83;;;2.22;;
60873;SDS011;46715;40.642;-7.920;2023-06-10T11:22:59;4.50;;;2.30;;
60873;SDS011;46715;40.642;-7.920;2023-06-10T11:25:02;7.03;;;2.80;;
60873;SDS011;46715;40.642;-7.920;2023-06-10T11:27:18;7.07;;;2.25;;
60873;SDS011;46715;40.642;-7.920;2023-06-10T11:29:20;3.88;;;2.22;;
60873;SDS011;46715;40.642;-7.920;2023-06-10T11:31:21;7.65;;;2.80;;
60873;SDS011;46715;40.642;-7.920;2023-06-10T11:33:26;4.78;;;1.95;;
60873;SDS011;46715;40.642;-7.920;2023-06-10T11:35:28;6.60;;;2.70;;
60873;SDS011;46715;40.642;-7.920;2023-06-10T11:37:30;5.20;;;2.17;;
60873;SDS011;46715;40.642;-7.920;2023-06-10T11:39:31;3.83;;;2.28;;
60873;SDS011;46715;40.642;-7.920;2023-06-10T11:41:33;8.38;;;2.50;;
60873;SDS011;46715;40.642;-7.920;2023-06-10T11:43:34;9.15;;;2.58;;
60873;SDS011;46715;40.642;-7.920;2023-06-10T11:45:35;5.82;;;2.00;;
60873;SDS011;46715;40.642;-7.920;2023-06-10T11:47:35;5.70;;;1.80;;
60873;SDS011;46715;40.642;-7.920;2023-06-10T11:49:36;6.00;;;2.53;;
60873;SDS011;46715;40.642;-7.920;2023-06-10T11:51:37;6.47;;;1.90;;
60873;SDS011;46715;40.642;-7.920;2023-06-10T11:53:40;4.63;;;2.40;;
60873;SDS011;46715;40.642;-7.920;2023-06-10T11:55:47;4.15;;;2.10;;
60873;SDS011;46715;40.642;-7.920;2023-06-10T11:57:49;4.43;;;2.15;;
60873;SDS011;46715;40.642;-7.920;2023-06-10T12:00:03;3.95;;;2.30;;
60873;SDS011;46715;40.642;-7.920;2023-06-10T12:02:15;5.07;;;2.80;;
60873;SDS011;46715;40.642;-7.920;2023-06-10T12:04:16;8.02;;;2.90;;
60873;SDS011;46715;40.642;-7.920;2023-06-10T12:06:18;6.63;;;2.50;;
60873;SDS011;46715;40.642;-7.920;2023-06-10T12:08:19;7.22;;;2.90;;
60873;SDS011;46715;40.642;-7.920;2023-06-10T12:12:20;7.47;;;2.90;;
60873;SDS011;46715;40.642;-7.920;2023-06-10T12:16:51;6.82;;;2.65;;
60873;SDS011;46715;40.642;-7.920;2023-06-10T12:19:00;5.55;;;2.88;;
60873;SDS011;46715;40.642;-7.920;2023-06-10T12:21:02;11.27;;;2.35;;
60873;SDS011;46715;40.642;-7.920;2023-06-10T12:23:09;6.55;;;2.38;;
60873;SDS011;46715;40.642;-7.920;2023-06-10T12:25:12;7.43;;;2.65;;
60873;SDS011;46715;40.642;-7.920;2023-06-10T12:27:13;5.28;;;3.17;;
60873;SDS011;46715;40.642;-7.920;2023-06-10T12:29:17;11.60;;;2.95;;
60873;SDS011;46715;40.642;-7.920;2023-06-10T12:31:24;9.97;;;3.00;;
60873;SDS011;46715;40.642;-7.920;2023-06-10T12:33:26;5.00;;;2.75;;